createdAt,value
2022-09-14T00:01:58.218Z,100634.13
2022-09-14T00:05:25.771Z,100635.09
2022-09-14T00:08:54.562Z,100632.97
2022-09-14T00:12:14.863Z,100633.76
2022-09-14T00:15:42.541Z,100631.11
2022-09-14T00:19:07.164Z,100636.59
2022-09-14T00:22:40.350Z,100634.81
2022-09-14T00:25:56.961Z,100632.98
2022-09-14T00:28:55.418Z,100635.95
2022-09-14T00:32:05.137Z,100636.66
2022-09-14T00:34:51.762Z,100643.27
2022-09-14T00:38:08.131Z,100645.52
2022-09-14T00:41:41.907Z,100645.05
2022-09-14T00:45:12.152Z,100650.39
2022-09-14T00:48:38.855Z,100647.38
2022-09-14T00:51:57.223Z,100643.40
2022-09-14T00:54:58.210Z,100646.38
2022-09-14T00:58:25.083Z,100647.83
2022-09-14T01:01:51.767Z,100649.09
2022-09-14T01:05:18.730Z,100647.66
2022-09-14T01:08:49.205Z,100649.05
2022-09-14T01:12:26.113Z,100651.45
2022-09-14T01:15:31.492Z,100650.79
2022-09-14T01:19:12.203Z,100651.97
2022-09-14T01:22:38.018Z,100647.23
2022-09-14T01:25:54.013Z,100648.95
2022-09-14T01:29:37.982Z,100652.88
2022-09-14T01:32:45.825Z,100650.48
2022-09-14T01:35:58.154Z,100655.61
2022-09-14T01:39:21.769Z,100656.20
2022-09-14T01:42:40.659Z,100654.98
2022-09-14T01:45:39.809Z,100656.10
2022-09-14T01:48:49.588Z,100658.25
2022-09-14T01:51:56.697Z,100657.80
2022-09-14T01:55:22.447Z,100660.27
2022-09-14T01:58:09.796Z,100661.58
2022-09-14T02:01:20.448Z,100661.78
2022-09-14T02:04:48.417Z,100660.52
2022-09-14T02:08:16.646Z,100659.16
2022-09-14T02:11:23.210Z,100660.39
2022-09-14T02:14:49.661Z,100660.17
2022-09-14T02:18:16.734Z,100666.75
2022-09-14T02:21:49.142Z,100669.97
2022-09-14T02:25:07.694Z,100671.79
2022-09-14T02:28:03.428Z,100670.15
2022-09-14T02:31:31.214Z,100671.74
2022-09-14T02:35:11.858Z,100677.70
2022-09-14T02:38:28.554Z,100681.30
2022-09-14T02:41:45.988Z,100677.95
2022-09-14T02:45:10.138Z,100680.14
2022-09-14T02:48:34.105Z,100681.73
2022-09-14T02:52:00.472Z,100690.39
2022-09-14T02:55:45.118Z,100694.23
2022-09-14T02:58:53.784Z,100698.05
2022-09-14T03:02:20.554Z,100699.55
2022-09-14T03:05:47.237Z,100702.58
2022-09-14T03:09:04.014Z,100708.77
2022-09-14T03:12:23.482Z,100712.07
2022-09-14T03:15:50.632Z,100718.18
2022-09-14T03:19:17.831Z,100719.60
2022-09-14T03:22:15.143Z,100721.67
2022-09-14T03:25:35.077Z,100724.09
2022-09-14T03:28:45.602Z,100728.45
2022-09-14T03:32:06.419Z,100733.45
2022-09-14T03:35:33.297Z,100731.36
2022-09-14T03:39:02.795Z,100729.77
2022-09-14T03:42:21.750Z,100733.79
2022-09-14T03:45:20.525Z,100735.41
2022-09-14T03:48:24.027Z,100739.16
2022-09-14T03:51:32.879Z,100740.11
2022-09-14T03:55:00.602Z,100736.81
2022-09-14T03:58:19.061Z,100738.98
2022-09-14T04:01:37.571Z,100738.29
2022-09-14T04:05:04.893Z,100729.66
2022-09-14T04:08:34.001Z,100736.73
2022-09-14T04:12:02.068Z,100736.30
2022-09-14T04:15:29.962Z,100742.37
2022-09-14T04:18:46.751Z,100745.42
2022-09-14T04:22:13.239Z,100742.02
2022-09-14T04:25:27.498Z,100734.22
2022-09-14T04:28:55.294Z,100738.02
2022-09-14T04:32:22.505Z,100739.11
2022-09-14T04:35:43.884Z,100733.30
2022-09-14T04:38:54.656Z,100729.63
2022-09-14T04:42:23.288Z,100727.06
2022-09-14T04:45:40.457Z,100725.02
2022-09-14T04:48:59.061Z,100719.92
2022-09-14T04:52:26.256Z,100717.41
2022-09-14T04:55:17.271Z,100719.27
2022-09-14T04:58:47.173Z,100719.95
2022-09-14T05:02:05.779Z,100718.63
2022-09-14T05:05:23.439Z,100717.38
2022-09-14T05:08:50.403Z,100721.90
2022-09-14T05:12:07.891Z,100722.83
2022-09-14T05:15:24.878Z,100728.45
2022-09-14T05:18:53.926Z,100724.06
2022-09-14T05:22:20.809Z,100727.91
2022-09-14T05:25:49.994Z,100725.92
2022-09-14T05:29:17.148Z,100723.59
2022-09-14T05:32:44.639Z,100721.18
2022-09-14T05:36:12.354Z,100725.36
2022-09-14T05:39:30.956Z,100724.45
2022-09-14T05:42:58.939Z,100727.66
2022-09-14T05:45:58.807Z,100728.41
2022-09-14T05:49:26.156Z,100723.76
2022-09-14T05:52:51.631Z,100728.85
2022-09-14T05:56:11.796Z,100728.31
2022-09-14T05:59:20.658Z,100724.48
2022-09-14T06:02:47.912Z,100726.42
2022-09-14T06:05:56.126Z,100726.45
2022-09-14T06:09:23.247Z,100726.45
2022-09-14T06:12:30.333Z,100722.52
2022-09-14T06:15:58.632Z,100728.17
2022-09-14T06:19:25.985Z,100727.05
2022-09-14T06:22:53.342Z,100727.80
2022-09-14T06:26:20.384Z,100725.45
2022-09-14T06:29:47.561Z,100723.91
2022-09-14T06:33:14.922Z,100725.85
2022-09-14T06:36:42.793Z,100732.64
2022-09-14T06:40:04.937Z,100729.17
2022-09-14T06:43:33.209Z,100725.48
2022-09-14T06:46:46.984Z,100731.52
2022-09-14T06:50:15.335Z,100730.35
2022-09-14T06:53:22.658Z,100729.65
2022-09-14T06:56:40.599Z,100727.41
2022-09-14T06:59:50.184Z,100731.83
2022-09-14T07:03:07.488Z,100731.27
2022-09-14T07:06:34.428Z,100728.75
2022-09-14T07:09:54.468Z,100732.64
2022-09-14T07:13:21.125Z,100737.72
2022-09-14T07:16:51.465Z,100734.86
2022-09-14T07:19:59.169Z,100737.24
2022-09-14T07:23:26.540Z,100736.99
2022-09-14T07:26:44.334Z,100735.98
2022-09-14T07:30:11.495Z,100737.70
2022-09-14T07:33:38.988Z,100733.91
2022-09-14T07:37:13.924Z,100731.00
2022-09-14T07:40:32.471Z,100729.52
2022-09-14T07:43:59.619Z,100735.52
2022-09-14T07:47:19.661Z,100732.52
2022-09-14T07:50:46.998Z,100734.42
2022-09-14T07:54:14.839Z,100734.86
2022-09-14T07:57:56.142Z,100732.91
2022-09-14T08:01:23.055Z,100731.51
2022-09-14T08:04:29.699Z,100734.61
2022-09-14T08:07:36.541Z,100729.96
2022-09-14T08:10:43.203Z,100728.06
2022-09-14T08:13:47.948Z,100723.75
2022-09-14T08:16:56.984Z,100733.18
2022-09-14T08:20:03.987Z,100730.81
2022-09-14T08:23:10.654Z,100732.10
2022-09-14T08:26:07.186Z,100733.90
2022-09-14T08:28:56.384Z,100736.22
2022-09-14T08:32:10.978Z,100734.73
2022-09-14T08:35:17.304Z,100733.55
2022-09-14T08:38:23.897Z,100735.21
2022-09-14T08:41:21.744Z,100733.55
2022-09-14T08:44:27.874Z,100728.25
2022-09-14T08:47:41.996Z,100723.75
2022-09-14T08:50:56.574Z,100729.29
2022-09-14T08:54:06.631Z,100728.28
2022-09-14T08:56:56.863Z,100728.30
2022-09-14T09:00:18.143Z,100728.55
2022-09-14T09:03:16.081Z,100728.64
2022-09-14T09:06:17.309Z,100727.70
2022-09-14T09:09:31.523Z,100729.56
2022-09-14T09:12:45.454Z,100733.40
2022-09-14T09:16:07.650Z,100733.02
2022-09-14T09:19:19.305Z,100734.17
2022-09-14T09:22:25.708Z,100735.63
2022-09-14T09:25:16.535Z,100735.87
2022-09-14T09:28:07.050Z,100736.27
2022-09-14T09:30:46.188Z,100733.75
2022-09-14T09:34:03.333Z,100735.02
2022-09-14T09:37:02.836Z,100741.93
2022-09-14T09:40:22.525Z,100739.13
2022-09-14T09:43:08.733Z,100736.84
2022-09-14T09:46:38.459Z,100743.11
2022-09-14T09:49:45.124Z,100744.65
2022-09-14T09:53:11.049Z,100744.84
2022-09-14T09:56:11.750Z,100741.52
2022-09-14T09:59:37.135Z,100742.48
2022-09-14T10:03:09.478Z,100744.14
2022-09-14T10:06:32.172Z,100744.36
2022-09-14T10:09:50.740Z,100745.96
2022-09-14T10:13:18.260Z,100748.93
2022-09-14T10:16:49.119Z,100747.84
2022-09-14T10:20:16.691Z,100752.52
2022-09-14T10:24:00.162Z,100748.64
2022-09-14T10:27:27.210Z,100751.76
2022-09-14T10:30:54.042Z,100754.39
2022-09-14T10:34:21.126Z,100757.10
2022-09-14T10:37:54.155Z,100757.11
2022-09-14T10:41:12.234Z,100754.77
2022-09-14T10:44:39.497Z,100756.75
2022-09-14T10:48:10.717Z,100757.94
2022-09-14T10:51:40.271Z,100758.34
2022-09-14T10:55:10.989Z,100759.07
2022-09-14T10:58:38.739Z,100757.02
2022-09-14T11:02:02.666Z,100764.23
2022-09-14T11:05:30.315Z,100766.73
2022-09-14T11:08:57.401Z,100766.83
2022-09-14T11:12:34.196Z,100769.45
2022-09-14T11:15:55.449Z,100770.35
2022-09-14T11:19:32.047Z,100770.53
2022-09-14T11:23:06.170Z,100772.36
2022-09-14T11:26:39.172Z,100777.67
2022-09-14T11:30:17.790Z,100779.85
2022-09-14T11:33:53.873Z,100776.39
2022-09-14T11:37:21.621Z,100773.45
2022-09-14T11:40:49.090Z,100773.08
2022-09-14T11:44:16.350Z,100779.97
2022-09-14T11:48:01.622Z,100780.73
2022-09-14T11:51:28.882Z,100784.84
2022-09-14T11:54:56.377Z,100787.69
2022-09-14T11:58:24.942Z,100789.04
2022-09-14T12:02:12.225Z,100788.96
2022-09-14T12:05:48.337Z,100788.33
2022-09-14T12:09:28.802Z,100788.25
2022-09-14T12:12:30.269Z,100785.80
2022-09-14T12:16:03.185Z,100785.97
2022-09-14T12:19:30.595Z,100786.39
2022-09-14T12:23:13.497Z,100787.34
2022-09-14T12:26:43.501Z,100785.45
2022-09-14T12:30:13.192Z,100787.60
2022-09-14T12:33:40.720Z,100789.37
2022-09-14T12:37:12.245Z,100792.30
2022-09-14T12:40:37.908Z,100795.63
2022-09-14T12:44:16.779Z,100797.85
2022-09-14T12:47:44.235Z,100794.77
2022-09-14T12:51:02.154Z,100795.88
2022-09-14T12:54:28.834Z,100798.02
2022-09-14T12:58:16.552Z,100805.13
2022-09-14T13:01:42.955Z,100803.78
2022-09-14T13:05:13.605Z,100802.61
2022-09-14T13:08:25.010Z,100800.63
2022-09-14T13:11:52.588Z,100802.45
2022-09-14T13:15:22.324Z,100800.39
2022-09-14T13:19:01.437Z,100801.61
2022-09-14T13:22:23.687Z,100805.18
2022-09-14T13:25:50.949Z,100802.73
2022-09-14T13:29:18.703Z,100808.02
2022-09-14T13:32:07.103Z,100808.83
2022-09-14T13:35:34.240Z,100805.59
2022-09-14T13:39:01.561Z,100808.11
2022-09-14T13:42:28.637Z,100807.02
2022-09-14T13:45:46.906Z,100811.70
2022-09-14T13:49:13.729Z,100815.05
2022-09-14T13:52:43.525Z,100814.02
2022-09-14T13:56:20.332Z,100818.67
2022-09-14T13:59:20.146Z,100819.65
2022-09-14T14:02:47.910Z,100825.58
2022-09-14T14:06:24.596Z,100827.31
2022-09-14T14:10:04.371Z,100829.90
2022-09-14T14:13:25.578Z,100830.22
2022-09-14T14:16:50.587Z,100826.95
2022-09-14T14:20:30.029Z,100827.42
2022-09-14T14:24:12.780Z,100832.53
2022-09-14T14:27:35.802Z,100831.87
2022-09-14T14:30:44.199Z,100835.29
2022-09-14T14:33:54.349Z,100844.00
2022-09-14T14:37:21.243Z,100843.63
2022-09-14T14:40:50.615Z,100842.04
2022-09-14T14:44:20.526Z,100845.45
2022-09-14T14:47:47.763Z,100847.34
2022-09-14T14:51:18.765Z,100846.71
2022-09-14T14:54:36.736Z,100848.21
2022-09-14T14:58:03.670Z,100846.16
2022-09-14T15:01:31.417Z,100849.38
2022-09-14T15:04:59.297Z,100854.90
2022-09-14T15:08:19.142Z,100855.31
2022-09-14T15:11:46.546Z,100858.19
2022-09-14T15:15:13.910Z,100858.38
2022-09-14T15:18:24.292Z,100865.42
2022-09-14T15:21:35.672Z,100868.95
2022-09-14T15:24:52.323Z,100867.13
2022-09-14T15:28:23.657Z,100863.83
2022-09-14T15:31:50.323Z,100861.60
2022-09-14T15:34:56.361Z,100863.92
2022-09-14T15:37:52.680Z,100864.52
2022-09-14T15:41:18.918Z,100863.98
2022-09-14T15:44:39.535Z,100861.19
2022-09-14T15:48:06.662Z,100865.61
2022-09-14T15:51:50.211Z,100869.14
2022-09-14T15:55:17.787Z,100869.41
2022-09-14T15:58:48.007Z,100866.23
2022-09-14T16:02:17.089Z,100869.92
2022-09-14T16:05:37.090Z,100866.95
2022-09-14T16:08:58.789Z,100872.96
2022-09-14T16:12:27.001Z,100872.38
2022-09-14T16:15:43.710Z,100872.41
2022-09-14T16:19:13.583Z,100873.29
2022-09-14T16:22:39.780Z,100875.94
2022-09-14T16:26:07.978Z,100879.51
2022-09-14T16:29:26.703Z,100883.85
2022-09-14T16:32:44.448Z,100884.69
2022-09-14T16:35:53.768Z,100891.52
2022-09-14T16:39:22.140Z,100896.58
2022-09-14T16:42:39.870Z,100899.52
2022-09-14T16:45:55.741Z,100899.08
2022-09-14T16:49:07.946Z,100904.79
2022-09-14T16:52:35.373Z,100904.27
2022-09-14T16:55:45.139Z,100906.83
2022-09-14T16:58:43.898Z,100908.50
2022-09-14T17:01:55.227Z,100911.95
2022-09-14T17:04:47.439Z,100909.98
2022-09-14T17:07:56.082Z,100919.04
2022-09-14T17:10:32.625Z,100918.63
2022-09-14T17:13:51.075Z,100918.42
2022-09-14T17:17:06.861Z,100919.80
2022-09-14T17:20:34.463Z,100917.53
2022-09-14T17:23:06.710Z,100920.29
2022-09-14T17:26:22.840Z,100915.99
2022-09-14T17:29:29.951Z,100917.04
2022-09-14T17:32:56.632Z,100917.44
2022-09-14T17:36:08.130Z,100917.52
2022-09-14T17:39:38.451Z,100914.36
2022-09-14T17:42:32.041Z,100915.64
2022-09-14T17:45:51.547Z,100913.35
2022-09-14T17:49:12.524Z,100912.30
2022-09-14T17:52:39.092Z,100911.65
2022-09-14T17:56:05.809Z,100912.34
2022-09-14T17:59:32.568Z,100908.21
2022-09-14T18:02:58.996Z,100906.63
2022-09-14T18:06:20.267Z,100908.56
2022-09-14T18:09:48.896Z,100907.81
2022-09-14T18:13:16.027Z,100905.95
2022-09-14T18:16:43.065Z,100901.68
2022-09-14T18:20:09.686Z,100902.40
2022-09-14T18:23:31.272Z,100897.29
2022-09-14T18:26:23.351Z,100898.92
2022-09-14T18:29:50.289Z,100893.92
2022-09-14T18:33:18.005Z,100893.85
2022-09-14T18:36:45.377Z,100900.04
2022-09-14T18:39:46.229Z,100902.40
2022-09-14T18:43:06.133Z,100901.06
2022-09-14T18:46:35.269Z,100899.65
2022-09-14T18:50:02.418Z,100896.71
2022-09-14T18:53:20.731Z,100891.43
2022-09-14T18:56:45.842Z,100897.64
2022-09-14T19:00:17.730Z,100894.40
2022-09-14T19:03:46.316Z,100896.13
2022-09-14T19:06:54.550Z,100897.08
2022-09-14T19:10:21.731Z,100895.42
2022-09-14T19:13:49.239Z,100895.16
2022-09-14T19:17:16.942Z,100892.27
2022-09-14T19:21:05.189Z,100893.97
2022-09-14T19:24:30.324Z,100890.20
2022-09-14T19:27:57.841Z,100886.92
2022-09-14T19:31:07.318Z,100887.66
2022-09-14T19:34:34.760Z,100884.43
2022-09-14T19:38:01.889Z,100880.40
2022-09-14T19:41:34.213Z,100886.41
2022-09-14T19:44:52.121Z,100883.95
2022-09-14T19:48:02.582Z,100878.33
2022-09-14T19:51:29.722Z,100877.98
2022-09-14T19:54:57.176Z,100875.22
2022-09-14T19:58:24.919Z,100876.80
2022-09-14T20:01:47.775Z,100877.99
2022-09-14T20:04:55.536Z,100876.84
2022-09-14T20:08:22.504Z,100875.43
2022-09-14T20:11:49.462Z,100874.09
2022-09-14T20:15:16.217Z,100872.42
2022-09-14T20:18:46.648Z,100869.58
2022-09-14T20:22:17.357Z,100872.60
2022-09-14T20:25:45.160Z,100870.42
2022-09-14T20:29:13.947Z,100871.20
2022-09-14T20:32:25.362Z,100867.00
2022-09-14T20:35:42.543Z,100865.73
2022-09-14T20:38:50.470Z,100868.98
2022-09-14T20:42:06.544Z,100865.15
2022-09-14T20:45:33.650Z,100864.70
2022-09-14T20:49:00.374Z,100864.92
2022-09-14T20:52:27.061Z,100865.23
2022-09-14T20:55:43.556Z,100865.94
2022-09-14T20:59:10.339Z,100864.81
2022-09-14T21:02:28.341Z,100862.64
2022-09-14T21:05:55.293Z,100858.02
2022-09-14T21:09:03.023Z,100859.24
2022-09-14T21:12:30.888Z,100860.05
2022-09-14T21:15:58.127Z,100858.48
2022-09-14T21:19:17.680Z,100855.92
2022-09-14T21:22:45.950Z,100852.41
2022-09-14T21:26:03.601Z,100855.34
2022-09-14T21:29:29.623Z,100856.48
2022-09-14T21:32:40.780Z,100860.60
2022-09-14T21:35:57.729Z,100858.77
2022-09-14T21:39:05.571Z,100858.58
2022-09-14T21:42:26.963Z,100859.42
2022-09-14T21:45:53.790Z,100857.48
2022-09-14T21:49:10.282Z,100859.13
2022-09-14T21:52:37.260Z,100857.35
2022-09-14T21:55:56.957Z,100857.01
2022-09-14T21:59:04.663Z,100853.61
2022-09-14T22:02:00.245Z,100853.72
2022-09-14T22:05:27.701Z,100853.33
2022-09-14T22:08:44.734Z,100849.60
2022-09-14T22:12:00.609Z,100850.80
2022-09-14T22:15:12.204Z,100845.14
2022-09-14T22:18:20.350Z,100845.88
2022-09-14T22:21:39.521Z,100840.74
2022-09-14T22:25:06.141Z,100835.94
2022-09-14T22:28:23.045Z,100837.28
2022-09-14T22:31:50.048Z,100835.40
2022-09-14T22:35:20.049Z,100831.38
2022-09-14T22:38:27.050Z,100829.29
2022-09-14T22:41:57.593Z,100828.41
2022-09-14T22:44:51.208Z,100828.64
2022-09-14T22:47:54.104Z,100825.10
2022-09-14T22:51:04.704Z,100827.73
2022-09-14T22:53:53.527Z,100822.43
2022-09-14T22:57:20.166Z,100822.41
2022-09-14T23:00:41.178Z,100825.02
2022-09-14T23:04:08.538Z,100827.29
2022-09-14T23:07:35.324Z,100826.29
2022-09-14T23:10:12.950Z,100821.89
2022-09-14T23:13:28.195Z,100824.02
2022-09-14T23:15:55.092Z,100824.20
2022-09-14T23:19:13.034Z,100824.98
2022-09-14T23:22:41.122Z,100827.69
2022-09-14T23:25:38.143Z,100830.70
2022-09-14T23:29:05.263Z,100830.06
2022-09-14T23:32:18.778Z,100827.66
2022-09-14T23:35:19.654Z,100828.40
2022-09-14T23:38:22.358Z,100825.84
2022-09-14T23:41:33.167Z,100830.20
2022-09-14T23:45:00.649Z,100826.21
2022-09-14T23:48:09.857Z,100827.86
2022-09-14T23:51:40.601Z,100828.21
2022-09-14T23:55:05.916Z,100820.21
2022-09-14T23:58:32.669Z,100820.85
